Time;durP1;ratioP1;P1;durP2;ratioP2;P2;SDS_P1;SDS_P2;PMS_P1;PMS_P2;Temp;Humidity;BMP_temperature;BMP_pressure;BME280_temperature;BME280_humidity;BME280_pressure;Samples;Min_cycle;Max_cycle;Signal;HPM_P1;HPM_P2
2021/05/12 00:01:19;;;;;;;10.73;4.88;;;16.30;89.40;;;;;;3542838;40;20037;-67
2021/05/12 00:03:45;;;;;;;7.63;4.38;;;16.40;89.50;;;;;;3545140;40;20035;-66
2021/05/12 00:06:11;;;;;;;7.55;4.95;;;16.40;89.30;;;;;;3546834;40;20034;-67
2021/05/12 00:08:36;;;;;;;6.38;4.47;;;16.40;88.90;;;;;;3546924;40;20031;-68
2021/05/12 00:11:02;;;;;;;6.13;4.30;;;16.30;89.00;;;;;;3539481;40;20301;-67
2021/05/12 00:13:28;;;;;;;8.55;5.80;;;16.40;89.10;;;;;;3542557;40;20804;-67
2021/05/12 00:15:54;;;;;;;8.38;5.28;;;16.40;88.90;;;;;;3544455;40;20038;-68
2021/05/12 00:18:22;;;;;;;7.65;4.97;;;16.30;88.60;;;;;;3545171;40;20062;-67
2021/05/12 00:20:49;;;;;;;6.95;5.13;;;16.30;88.80;;;;;;3548164;40;20533;-68
2021/05/12 00:23:22;;;;;;;8.18;5.88;;;16.30;89.00;;;;;;3550101;40;20078;-66
2021/05/12 00:25:48;;;;;;;8.15;5.82;;;16.30;89.30;;;;;;3542255;40;20438;-67
2021/05/12 00:28:14;;;;;;;7.63;5.20;;;16.20;88.80;;;;;;3544514;40;20093;-67
2021/05/12 00:30:40;;;;;;;8.63;5.57;;;16.20;89.00;;;;;;3545826;40;20030;-67
2021/05/12 00:33:05;;;;;;;8.27;6.07;;;16.20;89.20;;;;;;3548724;40;20545;-67
2021/05/12 00:35:31;;;;;;;8.98;5.63;;;16.20;88.80;;;;;;3549925;40;20030;-67
2021/05/12 00:37:57;;;;;;;7.35;5.18;;;16.20;88.30;;;;;;3549141;40;20045;-66
2021/05/12 00:40:23;;;;;;;6.07;4.43;;;16.20;88.60;;;;;;3546581;40;20406;-66
2021/05/12 00:42:49;;;;;;;8.32;5.93;;;16.10;88.70;;;;;;3544618;40;20034;-67
2021/05/12 00:45:20;;;;;;;9.18;5.07;;;16.20;88.70;;;;;;3543181;40;20128;-67
2021/05/12 00:47:48;;;;;;;11.40;5.95;;;16.10;88.50;;;;;;3540860;40;20050;-67
2021/05/12 00:50:16;;;;;;;7.82;4.50;;;16.10;88.40;;;;;;3542940;40;20040;-67
2021/05/12 00:52:42;;;;;;;7.05;5.07;;;16.10;88.50;;;;;;3543966;40;20115;-67
2021/05/12 00:55:08;;;;;;;7.57;4.90;;;16.10;88.40;;;;;;3545187;40;20030;-67
2021/05/12 00:57:35;;;;;;;6.22;4.63;;;16.10;88.50;;;;;;3546719;40;20094;-67
2021/05/12 01:00:04;;;;;;;5.75;4.45;;;16.00;88.40;;;;;;3548534;40;20049;-67
2021/05/12 01:02:30;;;;;;;8.18;5.22;;;16.00;88.50;;;;;;3548364;40;20030;-66
2021/05/12 01:04:56;;;;;;;7.22;4.90;;;16.10;88.70;;;;;;3544591;40;20041;-67
2021/05/12 01:07:22;;;;;;;8.60;5.28;;;16.10;88.80;;;;;;3544523;40;20027;-66
2021/05/12 01:09:47;;;;;;;8.40;5.32;;;16.10;88.40;;;;;;3542483;40;20045;-67
2021/05/12 01:12:13;;;;;;;5.40;4.57;;;16.10;88.10;;;;;;3540449;40;20064;-67
2021/05/12 01:14:39;;;;;;;5.50;4.30;;;16.00;87.20;;;;;;3540179;40;20152;-67
2021/05/12 01:17:05;;;;;;;5.03;3.80;;;16.00;87.10;;;;;;3542727;40;20033;-67
2021/05/12 01:19:30;;;;;;;7.28;4.32;;;16.00;86.80;;;;;;3544479;40;20034;-66
2021/05/12 01:21:56;;;;;;;5.43;3.80;;;15.90;86.20;;;;;;3545962;40;20052;-67
2021/05/12 01:24:22;;;;;;;7.25;3.80;;;15.80;86.60;;;;;;3544662;40;20839;-67
2021/05/12 01:26:48;;;;;;;7.82;4.20;;;15.80;86.80;;;;;;3540424;40;20038;-67
2021/05/12 01:29:14;;;;;;;7.88;3.83;;;15.80;87.30;;;;;;3542836;40;20045;-66
2021/05/12 01:31:42;;;;;;;6.65;3.65;;;15.70;87.40;;;;;;3544419;40;20026;-66
2021/05/12 01:34:16;;;;;;;4.85;3.35;;;15.70;87.50;;;;;;3543484;40;20026;-66
2021/05/12 01:36:43;;;;;;;6.07;3.60;;;15.80;87.70;;;;;;3542974;40;20082;-68
2021/05/12 01:39:11;;;;;;;5.97;3.80;;;15.80;87.60;;;;;;3540472;40;20025;-67
2021/05/12 01:41:37;;;;;;;4.35;3.78;;;15.80;87.70;;;;;;3541760;40;20385;-67
2021/05/12 01:44:08;;;;;;;6.43;3.85;;;15.70;87.50;;;;;;3543892;40;20042;-67
2021/05/12 01:46:34;;;;;;;4.20;3.40;;;15.70;87.90;;;;;;3543750;40;20619;-67
2021/05/12 01:49:01;;;;;;;5.57;3.67;;;15.70;88.30;;;;;;3541488;40;20030;-66
2021/05/12 01:51:27;;;;;;;4.82;3.03;;;15.70;88.20;;;;;;3539042;40;20054;-66
2021/05/12 01:53:53;;;;;;;6.72;4.25;;;15.70;88.10;;;;;;3541276;40;20057;-66
2021/05/12 01:56:19;;;;;;;6.95;4.03;;;15.70;88.30;;;;;;3543352;40;20038;-67
2021/05/12 01:58:45;;;;;;;5.93;3.70;;;15.70;87.80;;;;;;3545655;40;20026;-67
2021/05/12 02:01:11;;;;;;;6.18;3.58;;;15.70;87.90;;;;;;3547258;40;20026;-67
2021/05/12 02:03:37;;;;;;;8.02;3.95;;;15.70;87.70;;;;;;3548981;40;20041;-67
2021/05/12 02:06:03;;;;;;;6.65;3.95;;;15.60;88.00;;;;;;3545818;40;20038;-67
2021/05/12 02:08:30;;;;;;;6.22;3.53;;;15.60;88.00;;;;;;3543964;40;20034;-67
2021/05/12 02:11:02;;;;;;;4.63;3.15;;;15.60;87.90;;;;;;3545058;40;20495;-68
2021/05/12 02:13:30;;;;;;;7.78;3.92;;;15.60;88.00;;;;;;3547086;40;20485;-67
2021/05/12 02:15:57;;;;;;;6.22;3.42;;;15.60;88.00;;;;;;3547899;40;20050;-67
2021/05/12 02:18:23;;;;;;;7.35;3.85;;;15.60;87.70;;;;;;3547852;40;20038;-66
2021/05/12 02:20:49;;;;;;;6.75;3.53;;;15.50;87.70;;;;;;3544689;40;20795;-67
2021/05/12 02:23:20;;;;;;;5.00;3.30;;;15.50;87.80;;;;;;3545885;40;20655;-67
2021/05/12 02:25:46;;;;;;;5.03;3.13;;;15.50;87.40;;;;;;3546370;40;20360;-66
2021/05/12 02:28:12;;;;;;;6.72;3.80;;;15.50;88.00;;;;;;3548536;40;20036;-68
2021/05/12 02:30:39;;;;;;;7.43;3.78;;;15.50;87.90;;;;;;3547334;40;20259;-66
2021/05/12 02:33:06;;;;;;;7.22;3.38;;;15.50;88.00;;;;;;3543428;40;20042;-66
2021/05/12 02:35:33;;;;;;;5.55;3.10;;;15.50;87.20;;;;;;3545112;40;20041;-66
2021/05/12 02:37:59;;;;;;;3.78;2.60;;;15.50;87.60;;;;;;3542861;40;20735;-67
2021/05/12 02:40:24;;;;;;;3.63;2.95;;;15.40;87.50;;;;;;3547897;40;20116;-68
2021/05/12 02:42:53;;;;;;;5.70;3.50;;;15.40;87.70;;;;;;3544632;40;20023;-66
2021/05/12 02:45:20;;;;;;;6.00;2.95;;;15.40;87.60;;;;;;3545813;40;20427;-66
2021/05/12 02:47:59;;;;;;;6.07;3.10;;;15.40;87.80;;;;;;3545277;40;20033;-67
2021/05/12 02:50:40;;;;;;;4.25;3.40;;;15.40;88.00;;;;;;3546206;40;20117;-67
2021/05/12 02:53:07;;;;;;;3.88;3.20;;;15.40;87.90;;;;;;3546364;40;20706;-67
2021/05/12 02:55:34;;;;;;;5.85;3.30;;;15.40;87.70;;;;;;3543339;40;20093;-67
2021/05/12 02:58:04;;;;;;;6.45;3.53;;;15.40;88.20;;;;;;3546417;40;20125;-65
2021/05/12 03:00:31;;;;;;;3.75;3.30;;;15.40;88.10;;;;;;3546693;40;20037;-66
2021/05/12 03:02:57;;;;;;;4.38;3.13;;;15.40;88.10;;;;;;3546223;40;20026;-66
2021/05/12 03:05:24;;;;;;;5.63;3.33;;;15.30;88.00;;;;;;3546521;40;20026;-67
2021/05/12 03:07:50;;;;;;;7.30;3.55;;;15.40;88.00;;;;;;3547835;40;20440;-66
2021/05/12 03:10:18;;;;;;;4.85;3.65;;;15.40;87.90;;;;;;3547806;40;20034;-68
2021/05/12 03:12:44;;;;;;;6.32;3.65;;;15.40;87.60;;;;;;3548182;40;20064;-67
2021/05/12 03:15:14;;;;;;;3.63;3.20;;;15.30;87.50;;;;;;3547726;40;20668;-66
2021/05/12 03:17:41;;;;;;;5.25;3.40;;;15.30;87.80;;;;;;3549445;40;20034;-67
2021/05/12 03:20:07;;;;;;;7.10;4.38;;;15.30;88.10;;;;;;3547465;40;20050;-66
2021/05/12 03:22:33;;;;;;;5.80;3.20;;;15.40;87.80;;;;;;3543819;40;20151;-67
2021/05/12 03:24:59;;;;;;;5.50;3.65;;;15.40;87.30;;;;;;3545122;40;20439;-67
2021/05/12 03:27:25;;;;;;;6.45;3.13;;;15.40;87.70;;;;;;3545934;40;20143;-67
2021/05/12 03:29:50;;;;;;;5.15;3.75;;;15.40;87.90;;;;;;3546314;40;20315;-66
2021/05/12 03:32:16;;;;;;;7.35;3.90;;;15.40;87.80;;;;;;3547423;40;20038;-67
2021/05/12 03:34:42;;;;;;;4.60;3.67;;;15.40;87.80;;;;;;3544383;40;20042;-66
2021/05/12 03:37:07;;;;;;;7.90;3.63;;;15.40;87.60;;;;;;3545060;40;20385;-67
2021/05/12 03:39:33;;;;;;;6.55;3.97;;;15.40;87.70;;;;;;3549093;40;20030;-67
2021/05/12 03:41:59;;;;;;;7.43;3.95;;;15.50;87.20;;;;;;3547354;40;20034;-66
2021/05/12 03:44:25;;;;;;;4.35;3.63;;;15.40;87.50;;;;;;3543672;40;20396;-66
2021/05/12 03:46:50;;;;;;;7.65;4.15;;;15.40;88.00;;;;;;3547692;40;20736;-67
2021/05/12 03:49:16;;;;;;;4.70;3.53;;;15.40;87.90;;;;;;3546330;40;20135;-67
2021/05/12 03:51:42;;;;;;;6.00;3.78;;;15.50;87.90;;;;;;3542989;40;20036;-67
2021/05/12 03:54:08;;;;;;;5.80;3.92;;;15.50;87.70;;;;;;3546758;40;20514;-67
2021/05/12 03:56:34;;;;;;;6.63;3.97;;;15.50;87.60;;;;;;3542793;40;20034;-67
2021/05/12 03:58:59;;;;;;;6.22;3.78;;;15.50;87.80;;;;;;3548489;40;20038;-67
2021/05/12 04:01:25;;;;;;;7.07;3.70;;;15.50;87.80;;;;;;3547324;40;20038;-65
2021/05/12 04:03:51;;;;;;;4.60;3.95;;;15.50;87.80;;;;;;3545090;40;20061;-66
2021/05/12 04:06:16;;;;;;;6.88;4.93;;;15.50;87.70;;;;;;3548104;40;20074;-66
2021/05/12 04:08:42;;;;;;;6.50;3.72;;;15.60;87.70;;;;;;3544531;40;20748;-66
2021/05/12 04:11:08;;;;;;;6.90;3.92;;;15.50;86.90;;;;;;3545656;40;20042;-66
2021/05/12 04:13:33;;;;;;;6.00;4.20;;;15.50;87.00;;;;;;3545707;40;20027;-67
2021/05/12 04:15:59;;;;;;;8.25;3.88;;;15.50;87.30;;;;;;3545430;40;20598;-67
2021/05/12 04:18:27;;;;;;;4.72;3.45;;;15.40;87.50;;;;;;3547188;40;20026;-66
2021/05/12 04:20:53;;;;;;;6.93;3.85;;;15.40;87.60;;;;;;3548416;40;20038;-65
2021/05/12 04:23:18;;;;;;;5.95;3.90;;;15.50;87.60;;;;;;3543128;40;20536;-67
2021/05/12 04:25:44;;;;;;;7.25;4.22;;;15.50;87.10;;;;;;3543626;40;20060;-66
2021/05/12 04:28:10;;;;;;;7.47;4.55;;;15.50;87.10;;;;;;3544825;40;20026;-67
2021/05/12 04:30:36;;;;;;;5.57;3.65;;;15.50;86.30;;;;;;3542118;40;20033;-66
2021/05/12 04:33:03;;;;;;;6.32;4.05;;;15.50;86.70;;;;;;3547606;40;20045;-67
2021/05/12 04:35:29;;;;;;;5.97;3.80;;;15.50;86.90;;;;;;3547307;40;20034;-66
2021/05/12 04:37:55;;;;;;;7.18;4.18;;;15.60;87.20;;;;;;3540224;40;20030;-67
2021/05/12 04:40:22;;;;;;;7.00;4.30;;;15.70;87.20;;;;;;3543387;40;20030;-67
2021/05/12 04:42:48;;;;;;;6.15;4.82;;;15.70;86.90;;;;;;3546986;40;20491;-67
2021/05/12 04:45:15;;;;;;;5.43;4.70;;;15.80;86.50;;;;;;3547258;40;20331;-67
2021/05/12 04:47:42;;;;;;;7.07;5.35;;;15.80;85.60;;;;;;3546919;40;20410;-66
2021/05/12 04:50:10;;;;;;;10.50;5.47;;;15.90;85.40;;;;;;3547472;40;20041;-67
2021/05/12 04:52:36;;;;;;;9.73;6.32;;;15.90;85.20;;;;;;3546529;40;20066;-67
2021/05/12 04:55:02;;;;;;;8.77;6.03;;;16.00;85.10;;;;;;3547099;40;20133;-67
2021/05/12 04:57:28;;;;;;;10.00;6.35;;;16.00;85.10;;;;;;3549581;40;20022;-66
2021/05/12 04:59:53;;;;;;;7.47;5.97;;;16.00;84.50;;;;;;3548609;40;20045;-67
2021/05/12 05:02:19;;;;;;;10.00;6.25;;;16.00;84.20;;;;;;3545493;40;20637;-67
2021/05/12 05:04:45;;;;;;;9.18;6.40;;;16.00;84.50;;;;;;3546199;40;20096;-67
2021/05/12 05:07:11;;;;;;;11.30;6.15;;;16.00;84.90;;;;;;3547040;40;20034;-66
2021/05/12 05:09:36;;;;;;;7.28;6.22;;;16.00;84.00;;;;;;3542994;40;20344;-66
2021/05/12 05:12:02;;;;;;;12.60;6.90;;;16.00;84.70;;;;;;3544130;40;20046;-67
2021/05/12 05:14:28;;;;;;;9.15;6.72;;;16.10;85.00;;;;;;3547834;40;20045;-67
2021/05/12 05:16:54;;;;;;;10.10;6.57;;;16.10;84.30;;;;;;3546845;40;20069;-67
2021/05/12 05:19:20;;;;;;;9.00;6.65;;;16.10;83.80;;;;;;3547317;40;20042;-66
2021/05/12 05:21:47;;;;;;;11.90;6.53;;;16.10;84.30;;;;;;3543228;40;20058;-67
2021/05/12 05:24:13;;;;;;;11.60;6.68;;;16.00;84.00;;;;;;3544042;40;20501;-67
2021/05/12 05:26:39;;;;;;;10.13;6.25;;;16.00;84.20;;;;;;3547374;40;20027;-67
2021/05/12 05:29:05;;;;;;;8.80;5.65;;;16.00;83.10;;;;;;3546007;40;20447;-67
2021/05/12 05:31:30;;;;;;;10.85;6.70;;;16.00;83.90;;;;;;3545010;40;20047;-66
2021/05/12 05:34:14;;;;;;;11.27;6.68;;;16.10;83.50;;;;;;3545245;40;20045;-67
2021/05/12 05:36:58;;;;;;;10.23;6.03;;;16.10;83.00;;;;;;3548672;40;20201;-67
2021/05/12 05:39:42;;;;;;;10.18;6.93;;;16.10;82.40;;;;;;3548885;40;20421;-67
2021/05/12 05:42:26;;;;;;;8.73;6.07;;;16.10;82.90;;;;;;3544182;40;20053;-66
2021/05/12 05:45:11;;;;;;;9.55;7.40;;;16.10;82.10;;;;;;3543550;40;20131;-66
2021/05/12 05:47:56;;;;;;;9.23;6.57;;;16.20;82.70;;;;;;3547884;40;20053;-66
2021/05/12 05:50:41;;;;;;;10.45;7.50;;;16.20;82.80;;;;;;3542398;40;20123;-67
2021/05/12 05:53:25;;;;;;;11.52;7.72;;;16.10;82.70;;;;;;3545666;40;20045;-67
2021/05/12 05:56:09;;;;;;;12.73;7.68;;;16.20;83.10;;;;;;3543985;40;20136;-67
2021/05/12 05:58:53;;;;;;;9.70;7.78;;;16.20;82.50;;;;;;3540997;40;20044;-67
2021/05/12 06:01:37;;;;;;;9.43;7.43;;;16.20;83.00;;;;;;3545303;40;20127;-66
2021/05/12 06:04:03;;;;;;;12.25;7.93;;;16.20;82.80;;;;;;3546848;40;20089;-66
2021/05/12 06:06:47;;;;;;;13.15;8.95;;;16.40;83.00;;;;;;3541573;40;20140;-66
2021/05/12 06:09:32;;;;;;;44.10;32.92;;;16.40;82.20;;;;;;3543967;40;20165;-67
2021/05/12 06:12:16;;;;;;;17.40;9.73;;;16.50;82.40;;;;;;3543133;40;20176;-65
2021/05/12 06:15:00;;;;;;;11.88;8.57;;;16.60;82.40;;;;;;3543713;40;20156;-66
2021/05/12 06:17:44;;;;;;;12.65;8.73;;;16.70;82.20;;;;;;3547991;40;20090;-66
2021/05/12 06:20:29;;;;;;;13.07;8.43;;;16.80;81.90;;;;;;3547186;40;20747;-67
2021/05/12 06:23:13;;;;;;;13.35;9.07;;;16.80;80.90;;;;;;3546191;40;20049;-64
2021/05/12 06:25:57;;;;;;;12.23;8.68;;;16.90;80.30;;;;;;3543369;40;20041;-66
2021/05/12 06:28:43;;;;;;;14.40;9.00;;;17.00;79.70;;;;;;3546587;40;20072;-65
2021/05/12 06:31:27;;;;;;;13.57;8.93;;;17.00;79.80;;;;;;3544401;40;20653;-67
2021/05/12 06:34:11;;;;;;;11.45;8.73;;;16.90;80.00;;;;;;3546738;40;20128;-64
2021/05/12 06:36:55;;;;;;;15.13;8.00;;;16.90;80.00;;;;;;3547648;40;20037;-66
2021/05/12 06:39:39;;;;;;;13.88;8.23;;;17.00;79.90;;;;;;3548198;40;20092;-66
2021/05/12 06:42:06;;;;;;;13.98;8.73;;;17.10;80.10;;;;;;3542121;40;20045;-66
2021/05/12 06:44:32;;;;;;;12.43;8.10;;;17.10;79.40;;;;;;3542522;40;20524;-66
2021/05/12 06:46:58;;;;;;;14.80;8.48;;;17.10;79.20;;;;;;3546532;40;20037;-65
2021/05/12 06:49:23;;;;;;;12.82;9.10;;;17.10;78.30;;;;;;3541451;40;20346;-66
2021/05/12 06:51:54;;;;;;;12.95;8.20;;;17.10;79.20;;;;;;3547440;40;20030;-67
2021/05/12 06:54:20;;;;;;;11.70;8.15;;;17.10;79.40;;;;;;3548280;40;20078;-65
2021/05/12 06:56:46;;;;;;;14.57;10.32;;;17.10;79.90;;;;;;3547955;40;20033;-66
2021/05/12 06:59:12;;;;;;;14.98;9.80;;;17.10;79.40;;;;;;3546535;40;20030;-67
2021/05/12 07:01:37;;;;;;;15.70;9.73;;;17.00;77.50;;;;;;3546960;40;21093;-68
2021/05/12 07:04:03;;;;;;;11.93;8.02;;;17.00;78.10;;;;;;3546813;40;20022;-67
2021/05/12 07:06:29;;;;;;;14.20;8.65;;;16.90;77.90;;;;;;3546339;40;20448;-66
2021/05/12 07:08:54;;;;;;;11.30;8.02;;;16.80;78.40;;;;;;3546996;40;20045;-66
2021/05/12 07:11:21;;;;;;;10.38;7.80;;;16.70;79.80;;;;;;3547521;40;20041;-67
2021/05/12 07:13:47;;;;;;;12.60;8.38;;;16.80;80.30;;;;;;3548420;40;20062;-66
2021/05/12 07:16:13;;;;;;;11.35;7.85;;;16.80;80.00;;;;;;3547666;40;20675;-67
2021/05/12 07:18:38;;;;;;;14.20;9.10;;;16.80;80.70;;;;;;3546643;40;20042;-66
2021/05/12 07:21:04;;;;;;;10.68;8.38;;;16.90;80.80;;;;;;3546921;40;20169;-68
2021/05/12 07:23:30;;;;;;;10.80;8.35;;;17.00;80.60;;;;;;3545577;40;20029;-68
2021/05/12 07:25:56;;;;;;;12.73;7.93;;;17.00;80.10;;;;;;3541661;40;20018;-68
2021/05/12 07:28:23;;;;;;;13.23;8.70;;;17.00;80.20;;;;;;3546459;40;20014;-66
2021/05/12 07:30:50;;;;;;;13.88;8.57;;;17.10;80.20;;;;;;3543384;40;20030;-68
2021/05/12 07:33:16;;;;;;;13.70;8.40;;;17.00;79.50;;;;;;3544800;40;20129;-68
2021/05/12 07:35:43;;;;;;;15.93;8.70;;;17.00;79.80;;;;;;3547395;40;20042;-67
2021/05/12 07:38:08;;;;;;;11.65;8.15;;;17.00;79.60;;;;;;3545979;40;20032;-68
2021/05/12 07:40:35;;;;;;;9.82;7.47;;;17.00;80.60;;;;;;3544291;40;20037;-68
2021/05/12 07:43:03;;;;;;;12.82;8.63;;;17.00;80.60;;;;;;3546289;40;20038;-68
2021/05/12 07:45:29;;;;;;;12.02;8.55;;;17.00;80.40;;;;;;3544595;40;20034;-68
2021/05/12 07:47:55;;;;;;;10.68;8.43;;;17.00;80.10;;;;;;3546220;40;20088;-68
2021/05/12 07:50:21;;;;;;;14.52;8.40;;;17.00;80.10;;;;;;3547737;40;20304;-73
2021/05/12 07:52:46;;;;;;;14.68;8.88;;;17.10;80.00;;;;;;3544906;40;20067;-69
2021/05/12 07:55:12;;;;;;;12.00;8.25;;;17.10;80.40;;;;;;3542089;40;20113;-69
2021/05/12 07:57:39;;;;;;;13.07;8.98;;;17.10;80.40;;;;;;3546811;40;20037;-69
2021/05/12 08:00:06;;;;;;;12.98;9.05;;;17.00;80.20;;;;;;3544178;40;20023;-69
2021/05/12 08:02:38;;;;;;;14.82;9.02;;;17.00;79.80;;;;;;3546726;40;20030;-68
2021/05/12 08:05:04;;;;;;;10.43;8.52;;;17.00;79.80;;;;;;3546153;40;20865;-69
2021/05/12 08:07:32;;;;;;;13.38;9.15;;;16.90;79.90;;;;;;3547947;40;20038;-68
2021/05/12 08:09:58;;;;;;;12.90;7.75;;;16.90;79.40;;;;;;3543307;40;20042;-68
2021/05/12 08:12:24;;;;;;;12.23;9.10;;;16.80;79.90;;;;;;3546279;40;20493;-69
2021/05/12 08:14:50;;;;;;;12.43;8.20;;;16.80;80.60;;;;;;3546073;40;20471;-69
2021/05/12 08:17:15;;;;;;;10.68;8.20;;;16.80;80.30;;;;;;3547766;40;20060;-69
2021/05/12 08:19:41;;;;;;;14.95;8.98;;;16.80;80.80;;;;;;3542124;40;20752;-68
2021/05/12 08:22:09;;;;;;;15.00;9.48;;;16.90;79.80;;;;;;3543075;40;20077;-69
2021/05/12 08:24:35;;;;;;;14.70;8.88;;;16.90;79.30;;;;;;3548073;40;20081;-68
2021/05/12 08:27:02;;;;;;;12.18;9.05;;;16.90;79.70;;;;;;3546915;40;20376;-68
2021/05/12 08:29:29;;;;;;;13.45;9.52;;;16.90;79.80;;;;;;3542758;40;20026;-68
2021/05/12 08:31:57;;;;;;;13.10;9.57;;;16.90;79.90;;;;;;3541130;40;20145;-69
2021/05/12 08:34:23;;;;;;;13.18;9.13;;;16.90;81.00;;;;;;3543929;40;20039;-69
2021/05/12 08:36:48;;;;;;;15.35;9.13;;;17.00;79.90;;;;;;3545841;40;20030;-69
2021/05/12 08:39:14;;;;;;;19.85;12.40;;;17.00;80.20;;;;;;3548154;40;20030;-69
2021/05/12 08:41:41;;;;;;;15.50;10.25;;;16.90;80.60;;;;;;3547449;40;20037;-69
2021/05/12 08:44:10;;;;;;;14.77;8.98;;;16.90;80.30;;;;;;3550063;40;20034;-69
2021/05/12 08:46:39;;;;;;;12.40;8.85;;;17.00;80.30;;;;;;3549850;40;20092;-69
2021/05/12 08:49:06;;;;;;;12.35;9.45;;;17.00;80.00;;;;;;3547183;40;20029;-68
2021/05/12 08:51:32;;;;;;;15.23;10.35;;;17.00;78.20;;;;;;3546789;40;20030;-69
2021/05/12 08:53:58;;;;;;;14.75;10.27;;;16.90;78.10;;;;;;3547292;40;20030;-69
2021/05/12 08:56:24;;;;;;;12.77;9.70;;;16.90;78.60;;;;;;3544997;40;20026;-69
2021/05/12 08:58:50;;;;;;;14.55;9.40;;;16.90;78.50;;;;;;3547474;40;20404;-69
2021/05/12 09:01:17;;;;;;;12.93;9.40;;;16.80;79.60;;;;;;3548986;40;20086;-69
2021/05/12 09:03:46;;;;;;;14.52;8.82;;;16.80;79.90;;;;;;3547034;40;20045;-69
2021/05/12 09:06:12;;;;;;;12.82;10.35;;;16.90;79.50;;;;;;3543166;40;20132;-69
2021/05/12 09:08:40;;;;;;;14.10;9.55;;;16.80;79.60;;;;;;3541148;40;20022;-67
2021/05/12 09:11:06;;;;;;;12.65;10.00;;;16.90;79.40;;;;;;3540636;40;20040;-68
2021/05/12 09:13:39;;;;;;;16.05;9.73;;;16.90;79.40;;;;;;3543200;40;20038;-67
2021/05/12 09:16:28;;;;;;;12.13;9.15;;;17.00;79.60;;;;;;3545910;40;20123;-69
2021/05/12 09:19:13;;;;;;;13.95;9.95;;;17.00;78.80;;;;;;3541821;40;20042;-68
2021/05/12 09:21:46;;;;;;;14.30;8.85;;;17.00;79.10;;;;;;3547058;40;20147;-70
2021/05/12 09:24:36;;;;;;;12.50;9.23;;;17.00;78.90;;;;;;3549024;40;20038;-70
2021/05/12 09:27:10;;;;;;;17.25;9.35;;;17.10;79.10;;;;;;3548353;40;20042;-70
2021/05/12 09:29:38;;;;;;;13.98;9.80;;;17.10;77.90;;;;;;3546037;40;20427;-70
2021/05/12 09:32:08;;;;;;;12.10;9.23;;;17.10;78.50;;;;;;3549101;40;20143;-69
2021/05/12 09:35:02;;;;;;;14.68;9.07;;;16.90;79.00;;;;;;3548112;40;20069;-70
2021/05/12 09:37:40;;;;;;;12.85;8.05;;;17.00;79.10;;;;;;3547262;40;20037;-70
2021/05/12 09:40:18;;;;;;;17.00;8.18;;;17.00;78.90;;;;;;3546567;40;20033;-69
2021/05/12 09:42:45;;;;;;;12.32;7.97;;;17.00;79.40;;;;;;3547106;40;20742;-71
2021/05/12 09:45:21;;;;;;;12.95;8.25;;;17.00;78.60;;;;;;3546385;40;20030;-70
2021/05/12 09:47:50;;;;;;;10.82;8.02;;;17.00;78.60;;;;;;3546343;40;20427;-69
2021/05/12 09:50:23;;;;;;;9.32;7.13;;;16.90;79.60;;;;;;3545390;40;20070;-69
2021/05/12 09:52:55;;;;;;;10.00;7.20;;;16.90;79.40;;;;;;3546086;40;20097;-68
2021/05/12 09:55:21;;;;;;;10.95;7.47;;;16.90;79.30;;;;;;3548605;40;20034;-70
2021/05/12 09:58:08;;;;;;;12.88;7.85;;;16.90;78.90;;;;;;3546204;40;20583;-68
2021/05/12 10:00:48;;;;;;;13.43;7.57;;;17.00;77.30;;;;;;3546001;40;20037;-69
2021/05/12 10:03:14;;;;;;;11.38;8.18;;;17.00;78.90;;;;;;3546879;40;20037;-69
2021/05/12 10:05:55;;;;;;;13.20;7.68;;;17.10;78.30;;;;;;3547771;40;20029;-69
2021/05/12 10:08:32;;;;;;;14.27;7.80;;;17.20;78.50;;;;;;3547253;40;20030;-69
2021/05/12 10:11:01;;;;;;;10.27;7.38;;;17.40;77.30;;;;;;3548114;40;20104;-68
2021/05/12 10:13:27;;;;;;;12.95;8.02;;;17.50;77.10;;;;;;3547693;40;20053;-69
2021/05/12 10:15:53;;;;;;;10.45;7.53;;;17.50;76.90;;;;;;3547329;40;20054;-67
2021/05/12 10:18:19;;;;;;;8.68;6.72;;;17.60;76.70;;;;;;3545413;40;20038;-69
2021/05/12 10:20:45;;;;;;;12.60;7.85;;;17.80;76.30;;;;;;3545734;40;20037;-69
2021/05/12 10:23:11;;;;;;;9.88;7.40;;;17.80;77.20;;;;;;3548982;40;20064;-69
2021/05/12 10:25:37;;;;;;;10.07;6.28;;;17.90;76.10;;;;;;3549109;40;20073;-69
2021/05/12 10:28:04;;;;;;;13.75;6.90;;;17.90;76.40;;;;;;3546698;40;20120;-70
2021/05/12 10:30:30;;;;;;;10.18;6.70;;;17.90;74.70;;;;;;3546334;40;20027;-69
2021/05/12 10:32:58;;;;;;;10.27;6.60;;;18.00;75.00;;;;;;3546665;40;20032;-69
2021/05/12 10:35:34;;;;;;;10.27;6.20;;;18.00;74.90;;;;;;3548060;40;20042;-69
2021/05/12 10:38:01;;;;;;;11.57;6.50;;;18.00;74.60;;;;;;3549267;40;20960;-69
2021/05/12 10:40:34;;;;;;;11.55;7.10;;;18.00;74.90;;;;;;3546185;40;20503;-70
2021/05/12 10:43:13;;;;;;;11.02;6.63;;;18.00;74.50;;;;;;3550712;40;20360;-69
2021/05/12 10:48:32;;;;;;;11.90;6.53;;;17.90;75.50;;;;;;3547004;40;20045;-69
2021/05/12 10:51:01;;;;;;;9.95;6.93;;;17.90;76.30;;;;;;3544738;40;20074;-70
2021/05/12 10:53:32;;;;;;;11.10;6.82;;;17.90;76.40;;;;;;3545058;40;20027;-69
2021/05/12 10:55:58;;;;;;;9.40;6.38;;;17.90;75.20;;;;;;3547491;40;20060;-69
2021/05/12 10:58:24;;;;;;;11.63;6.43;;;17.90;75.30;;;;;;3545415;40;20103;-68
2021/05/12 11:01:01;;;;;;;9.02;6.05;;;17.90;74.40;;;;;;3545111;40;20093;-69
2021/05/12 11:03:52;;;;;;;11.75;6.72;;;17.80;74.50;;;;;;3543129;40;20842;-68
2021/05/12 11:06:20;;;;;;;9.32;6.78;;;17.70;75.60;;;;;;3542186;40;20829;-69
2021/05/12 11:09:09;;;;;;;10.07;6.65;;;17.70;74.60;;;;;;3544120;40;20296;-68
2021/05/12 11:11:37;;;;;;;10.10;6.20;;;17.60;76.00;;;;;;3544691;40;20131;-69
2021/05/12 11:14:27;;;;;;;9.15;6.60;;;17.60;77.00;;;;;;3548668;40;20441;-69
2021/05/12 11:17:12;;;;;;;11.00;7.05;;;17.60;75.90;;;;;;3548101;40;20041;-69
2021/05/12 11:19:41;;;;;;;9.93;6.90;;;17.60;75.80;;;;;;3545655;40;20057;-68
2021/05/12 11:25:20;;;;;;;11.10;6.82;;;17.60;76.40;;;;;;3542650;40;20065;-70
2021/05/12 11:33:08;;;;;;;15.18;10.07;;;17.50;76.60;;;;;;3544782;40;20030;-70
2021/05/12 11:35:35;;;;;;;10.10;6.60;;;17.50;76.40;;;;;;3546897;40;20026;-69
2021/05/12 11:38:13;;;;;;;11.63;6.57;;;17.50;77.20;;;;;;3544282;40;20045;-67
2021/05/12 11:40:39;;;;;;;8.60;6.97;;;17.50;75.70;;;;;;3547255;40;20070;-69
2021/05/12 11:43:04;;;;;;;7.15;6.00;;;17.50;76.40;;;;;;3548487;40;20052;-69
2021/05/12 11:45:30;;;;;;;10.85;6.63;;;17.50;76.20;;;;;;3547190;40;20689;-68
2021/05/12 11:47:59;;;;;;;10.88;7.10;;;17.50;76.90;;;;;;3546078;40;20049;-68
2021/05/12 11:50:30;;;;;;;10.30;6.72;;;17.50;76.40;;;;;;3547345;40;20054;-69
2021/05/12 11:52:56;;;;;;;9.13;6.70;;;17.50;76.70;;;;;;3547729;40;20458;-69
2021/05/12 11:55:31;;;;;;;8.75;6.38;;;17.50;77.00;;;;;;3542961;40;20026;-68
2021/05/12 11:57:56;;;;;;;10.40;7.15;;;17.40;76.80;;;;;;3544006;40;20069;-69
2021/05/12 12:00:29;;;;;;;8.82;6.50;;;17.40;75.70;;;;;;3543964;40;20490;-69
2021/05/12 12:03:04;;;;;;;9.82;6.78;;;17.40;76.60;;;;;;3542664;40;20487;-69
2021/05/12 12:05:38;;;;;;;12.30;7.70;;;17.30;76.40;;;;;;3541649;40;20712;-69
2021/05/12 12:08:17;;;;;;;10.65;7.28;;;17.40;76.00;;;;;;3544277;40;20041;-70
2021/05/12 12:10:44;;;;;;;11.98;7.05;;;17.30;76.60;;;;;;3539646;40;20026;-70
2021/05/12 12:13:15;;;;;;;10.02;6.72;;;17.30;76.80;;;;;;3545799;40;20030;-69
2021/05/12 12:15:46;;;;;;;11.98;7.13;;;17.40;76.80;;;;;;3546301;40;20064;-69
2021/05/12 12:18:13;;;;;;;9.45;7.00;;;17.40;76.60;;;;;;3548794;40;20038;-70
2021/05/12 12:20:39;;;;;;;10.30;7.30;;;17.50;76.20;;;;;;3547056;40;20038;-68
2021/05/12 12:23:05;;;;;;;11.63;7.50;;;17.50;76.90;;;;;;3544598;40;20129;-70
2021/05/12 12:25:52;;;;;;;11.45;7.93;;;17.50;76.50;;;;;;3546529;40;20042;-69
2021/05/12 12:28:19;;;;;;;11.85;7.60;;;17.60;75.40;;;;;;3548483;40;20042;-70
2021/05/12 12:30:46;;;;;;;10.80;7.25;;;17.60;76.00;;;;;;3548620;40;20664;-69
2021/05/12 12:33:11;;;;;;;9.60;6.82;;;17.50;76.40;;;;;;3546791;40;20032;-69
2021/05/12 12:35:37;;;;;;;9.10;7.15;;;17.50;77.00;;;;;;3546750;40;20172;-69
2021/05/12 12:38:13;;;;;;;11.05;6.65;;;17.50;76.80;;;;;;3544617;40;20658;-69
2021/05/12 12:40:45;;;;;;;8.63;6.95;;;17.50;77.60;;;;;;3543304;40;20042;-69
2021/05/12 12:43:11;;;;;;;10.48;7.55;;;17.50;76.70;;;;;;3547717;40;20692;-70
2021/05/12 12:45:42;;;;;;;9.68;7.32;;;17.50;77.10;;;;;;3546934;40;20038;-69
2021/05/12 12:48:08;;;;;;;8.38;6.85;;;17.50;77.50;;;;;;3545486;40;20033;-69
2021/05/12 12:50:36;;;;;;;8.13;6.80;;;17.50;77.20;;;;;;3546709;40;20082;-69
2021/05/12 12:53:10;;;;;;;11.07;7.25;;;17.50;77.20;;;;;;3544557;40;20081;-68
2021/05/12 12:55:37;;;;;;;13.68;8.18;;;17.50;77.80;;;;;;3544112;40;20046;-70
2021/05/12 12:58:07;;;;;;;13.95;8.88;;;17.60;77.00;;;;;;3542800;40;20033;-69
2021/05/12 13:00:36;;;;;;;15.02;10.38;;;17.60;76.80;;;;;;3546864;40;20029;-69
2021/05/12 13:03:24;;;;;;;10.25;6.97;;;17.60;76.20;;;;;;3544676;40;20026;-69